logo
App data

Imagine Me

Help Robbe reclaim his memories in this 2D, dungeon platformer. Search spike-filled dungeons for the exit, unlock memories, face his darkest fears - and maybe some of your own!
Store | Hub | SteamDB | Site
Developer: KinifiGames LLC Publisher: KinifiGames LLC
Genre: Adventure, Indie
Languages: English
Tags: Indie (33), Adventure (24), Platformer (15), Singleplayer (5)
Category: Single-player, Steam Achievements, Steam Trading Cards, Steam Workshop, Partial Controller Support, Steam Cloud, Stats, Includes level editor
Release date: Mar 14, 2014
Price: $2.99
Old userscore: 31% Owners: 20,000 .. 50,000
Followers: 243
Peak concurrent players yesterday: 1
YouTube stats: 714 views and 47 comments for top 50 videos uploaded last week, 3 new videos uploaded yesterday.
Playtime total: 00:48 (average) 00:50 (median)

Steam Spy is still in beta, so expect major bugs.

Owners data:

Access restricted.

This feature is only available to users with special access rights. Sorry.

If you want to proceed, you need to register or log in first and then back Steam Spy on Patreon. Look for Indie or Pro pledge.

Don't forget to use the same email as on Steam Spy!

Audience in 2 weeks:

Access restricted.

This feature is only available to users with special access rights. Sorry.

If you want to proceed, you need to register or log in first and then back Steam Spy on Patreon. Look for Indie or Pro pledge.

Don't forget to use the same email as on Steam Spy!

Peak daily concurrent players:

CCU data courtesy of SteamDB. Used with permission.

Hourly concurrent players:

Daily Twitch stats:

Hourly Twitch stats:

Followers over time

Access restricted.

This feature is only available to users with special access rights. Sorry.

If you want to proceed, you need to register or log in first and then back Steam Spy on Patreon. Look for Indie or Pro pledge.

Don't forget to use the same email as on Steam Spy!

Views for top 50 videos on YouTube for this game:

Games similar to this one:

# Game Release date
Price
Score rank
(Userscore / Metascore)
Owners
Players
Playtime (Median)
1 Karma Miwa Aug 12, 2016 $0.99N/A (N/A)20,000 .. 50,0000%00:00 (00:00)
2 NORTH Apr 27, 2016 $1.99N/A (N/A)200,000 .. 500,0000%00:00 (00:00)
3 Super Duper Party Pooper Jun 6, 2016 $0.49N/A (N/A/40%)100,000 .. 200,0000%00:00 (00:00)
4 Deathwave Jun 9, 2016 $4.99N/A (N/A)0 .. 20,0000%00:00 (00:00)
5 DashBored Jun 13, 2016 $4.99N/A (N/A)20,000 .. 50,0001.69%00:01 (00:00)
6 上帝之城 I:监狱帝国 [City of God I - Prison Empire] Jul 9, 2018 $18.99N/A (N/A)50,000 .. 100,0000%00:00 (00:00)
7 Bohemian Killing Jul 21, 2016 $12.99N/A (N/A/55%)0 .. 20,0000%00:00 (00:00)
8 Angel Express [Tokkyu Tenshi] Jul 15, 2016 $9.99N/A (N/A)0 .. 20,0000%00:00 (00:00)
9 Mainlining Jan 26, 2017 $12.99N/A (N/A/73%)20,000 .. 50,0000%00:00 (00:00)
10 Scanner Sombre Apr 26, 2017 $5.99N/A (N/A/67%)100,000 .. 200,0000%00:00 (00:00)
11 Wrath of Anna Apr 2, 2018 $19.99N/A (N/A)50,000 .. 100,0000%00:00 (00:00)
12 Reflection of Mine Feb 24, 2017 $7.99N/A (N/A)0 .. 20,0000%00:00 (00:00)
13 Snooker Nation Championship Apr 27, 2016 $3.99N/A (N/A)0 .. 20,0000%00:00 (00:00)
14 Star Drifter Jun 1, 2016 $0.99N/A (N/A)200,000 .. 500,0000%00:00 (00:00)
15 Dashy Square Apr 26, 2016 $2.99N/A (N/A)0 .. 20,0000%00:00 (00:00)
16 Call Of The Mighty Warriors Jun 2, 2016 $0.99N/A (N/A)20,000 .. 50,00014.29%00:01 (00:00)
17 Moonstone Tavern - A Fantasy Tavern Sim! May 13, 2016 $7.99N/A (N/A)20,000 .. 50,0000%00:00 (00:00)
18 TIMEframe Jul 7, 2015 $5.99N/A (N/A)50,000 .. 100,0000%00:00 (00:00)
19 An Octave Higher Mar 27, 2015 $11.99N/A (N/A)0 .. 20,0000%00:00 (00:00)
20 On A Roll 3D Feb 12, 2015 $3.99N/A (N/A)50,000 .. 100,0000%00:00 (00:00)
21 Reign of Bullets Aug 19, 2015 $9.99N/A (N/A)0 .. 20,0000%00:00 (00:00)
22 Glorkian Warrior: The Trials Of Glork Mar 24, 2015 $3.99N/A (N/A)20,000 .. 50,00016.67%02:11 (00:43)
23 Centauri Sector Jun 24, 2015 $4.99N/A (N/A)20,000 .. 50,0000%00:00 (00:00)
24 Countless Rooms of Death Feb 20, 2014 $0.99N/A (N/A)0 .. 20,0000%00:00 (00:00)
25 Sky Mercenaries Dec 16, 2014 $9.99N/A (N/A)20,000 .. 50,0000%00:00 (00:00)
26 It came from space and ate our brains Mar 19, 2015 $14.99N/A (N/A)50,000 .. 100,0000%00:00 (00:00)
27 Bloody Streets Mar 12, 2015 $4.99N/A (N/A)20,000 .. 50,0000%00:00 (00:00)
28 Disillusions Manga Horror Apr 6, 2013 $0.99N/A (N/A)20,000 .. 50,0000%00:00 (00:00)
29 Chronicles of a Dark Lord: Episode 1 Tides of Fate Complete Dec 19, 2014 N/AN/A (N/A)50,000 .. 100,0000%00:00 (00:00)
30 Three Fourths Home: Extended Edition Mar 20, 2015 $4.99N/A (N/A/77%)20,000 .. 50,0000%00:00 (00:00)
31 Bermuda Mar 17, 2015 $2.99N/A (N/A)50,000 .. 100,0000%00:00 (00:00)
32 Rats - Time is running out! Aug 19, 2015 $4.99N/A (N/A)20,000 .. 50,0000%00:00 (00:00)
33 Ukrainian Ninja Dec 23, 2014 FreeN/A (N/A)20,000 .. 50,0000%00:00 (00:00)
34 Porcunipine May 21, 2015 $9.99N/A (N/A)20,000 .. 50,0000%00:00 (00:00)
35 Wake At some point $4.99N/A (N/A)0 .. 20,0000%00:00 (00:00)
36 BIT.TRIP VOID Dec 19, 2012 $9.99N/A (N/A)20,000 .. 50,0000%00:00 (00:00)
37 Element4l May 24, 2013 $8.99N/A (N/A/77%)50,000 .. 100,0000%00:00 (00:00)
38 Tales From Space: Mutant Blobs Attack Aug 15, 2012 $9.99N/A (N/A/83%)100,000 .. 200,0000%00:00 (00:00)
39 Intake Nov 5, 2013 $9.99N/A (N/A)20,000 .. 50,0000%00:00 (00:00)
40 Home Jun 1, 2012 $4.99N/A (N/A/69%)200,000 .. 500,0000%00:00 (00:00)
41 Super Puzzle Platformer Deluxe May 24, 2013 $7.99N/A (N/A)50,000 .. 100,0000%00:00 (00:00)
42 Cargo Commander Nov 1, 2012 $2.99N/A (N/A)100,000 .. 200,0000%00:00 (00:00)
43 Critter Crunch Sep 11, 2012 $6.99N/A (N/A)20,000 .. 50,0000%00:00 (00:00)
44 Puddle Nov 9, 2012 $7.99N/A (N/A)50,000 .. 100,0000%00:00 (00:00)
45 BIT.TRIP BEAT Nov 2, 2010 $9.99N/A (N/A)200,000 .. 500,0000%00:00 (00:00)
46 Papo & Yo Apr 18, 2013 $14.99N/A (N/A/70%)200,000 .. 500,0000%00:00 (00:00)
47 Super Splatters Jun 26, 2013 N/AN/A (N/A/73%)50,000 .. 100,0000%00:00 (00:00)
48 Dream Jul 31, 2015 $8.99N/A (N/A/59%)50,000 .. 100,0000%00:00 (00:00)
49 Titan Attacks! Feb 3, 2012 $9.99N/A (N/A)100,000 .. 200,0000%00:00 (00:00)
50 Godus N/AN/A (N/A)50,000 .. 100,0000%00:00 (00:00)
51 BIT.TRIP CORE Oct 2, 2012 $9.99N/A (N/A)20,000 .. 50,0000%00:00 (00:00)
52 Snake Pass Mar 28, 2017 $19.99N/A (N/A/71%)100,000 .. 200,0003.03%01:20 (00:26)
53 Intensive Exposure Sep 6, 2016 $4.99N/A (N/A)0 .. 20,0000%00:00 (00:00)
54 Wayout Nov 4, 2016 $0.49N/A (N/A)50,000 .. 100,0000%00:00 (00:00)
55 It Comes Around - A Kinetic Novel Sep 29, 2016 $2.99N/A (N/A)20,000 .. 50,0000%00:00 (00:00)
56 Zolg Dec 2, 2016 $0.99N/A (N/A)20,000 .. 50,0000%00:00 (00:00)
57 Starship Annihilator Sep 2, 2016 $0.99N/A (N/A)50,000 .. 100,0000%00:00 (00:00)
58 Witch It May 31, 2017 $14.99N/A (N/A)200,000 .. 500,0000%00:00 (00:00)
59 Please, Don't Touch Anything 3D Dec 7, 2016 $4.49N/A (N/A)20,000 .. 50,0000%00:00 (00:00)
60 You Deserve Aug 19, 2016 $0.99N/A (N/A)20,000 .. 50,0000%00:00 (00:00)
61 mr.President Prologue Episode Sep 20, 2016 $0.99N/A (N/A)20,000 .. 50,0000%00:00 (00:00)
62 Dinosaur Forest May 17, 2017 $1.99N/A (N/A)50,000 .. 100,0000%00:00 (00:00)
63 AIRHEART - Tales of broken Wings Jul 24, 2018 $14.99N/A (N/A/62%)20,000 .. 50,0000%00:00 (00:00)
64 Showdown Adventure Sep 21, 2016 $2.99N/A (N/A)0 .. 20,0000%00:00 (00:00)
65 BoomTown! Deluxe Oct 14, 2016 $1.99N/A (N/A)20,000 .. 50,0000%00:00 (00:00)
66 Joana's Life Sep 1, 2016 $5.99N/A (N/A)50,000 .. 100,0004.17%00:01 (00:00)
67 Pixel Gladiator Sep 8, 2017 $4.99N/A (N/A)20,000 .. 50,0000%00:00 (00:00)
68 Pinkman Jan 16, 2017 $0.99N/A (N/A)0 .. 20,0000%00:00 (00:00)
69 Impossiball Aug 8, 2017 $0.99N/A (N/A)0 .. 20,0000%00:00 (00:00)
70 Spellsworn Mar 13, 2018 FreeN/A (N/A)100,000 .. 200,0000%00:00 (00:00)
71 Pizza Express Jun 25, 2015 $6.99N/A (N/A)20,000 .. 50,0000%00:00 (00:00)
72 Luna Sky Oct 2, 2015 $12.99N/A (N/A)50,000 .. 100,0000%00:00 (00:00)
73 Football, Tactics & Glory Jun 1, 2018 $24.99N/A (N/A)20,000 .. 50,0000%00:00 (00:00)
74 Interstellar Rift Jun 23, 2015 $18.99N/A (N/A)20,000 .. 50,0000%00:00 (00:00)
75 The Adventures of Mr. Bobley Jun 30, 2015 $0.99N/A (N/A)50,000 .. 100,0000%00:00 (00:00)
76 BRAWL Aug 13, 2015 $14.99N/A (N/A)0 .. 20,0000%00:00 (00:00)
77 Home is Where One Starts... May 12, 2015 $2.99N/A (N/A)20,000 .. 50,0000%00:00 (00:00)
78 Broken Bots Jun 7, 2016 $6.99N/A (N/A)0 .. 20,0000%00:00 (00:00)
79 Beyond Eyes Aug 11, 2015 $2.99N/A (N/A/60%)100,000 .. 200,0000%00:00 (00:00)
80 Vernon's Legacy Sep 23, 2016 $11.99N/A (N/A)0 .. 20,0000%00:00 (00:00)
81 Big Action Mega Fight! Jan 12, 2016 $1.99N/A (N/A)20,000 .. 50,0000%00:00 (00:00)
82 Polyball Dec 1, 2017 $14.99N/A (N/A)100,000 .. 200,0002.24%00:37 (00:18)
83 Gryphon Knight Epic Aug 20, 2015 $6.99N/A (N/A/55%)20,000 .. 50,0000%00:00 (00:00)
84 Shoot 1UP Sep 23, 2015 $3.99N/A (N/A)0 .. 20,0000%00:00 (00:00)
85 Hare In The Hat Apr 1, 2015 $1.99N/A (N/A)20,000 .. 50,0000%00:00 (00:00)
86 GORN Jul 18, 2019 $19.99N/A (N/A/85%)200,000 .. 500,0000%00:00 (00:00)
87 Open Sorcery Feb 22, 2017 $3.99N/A (N/A)0 .. 20,0000%00:00 (00:00)
88 Monolith Jun 7, 2017 $7.99N/A (N/A/83%)50,000 .. 100,0000%00:00 (00:00)
89 Guns of Icarus Alliance Mar 31, 2017 $4.99N/A (N/A)50,000 .. 100,0000%00:00 (00:00)
90 Introvert Quest Mar 15, 2017 $0.49N/A (N/A)100,000 .. 200,0000%00:00 (00:00)
91 The Archotek Project Apr 28, 2017 $0.99N/A (N/A)200,000 .. 500,0003.37%02:03 (04:03)
92 Distant Space Dec 20, 2016 $0.99N/A (N/A)50,000 .. 100,0000%00:00 (00:00)
93 Child Phobia: Nightcoming Fears Dec 20, 2016 $1.99N/A (N/A)20,000 .. 50,0000%00:00 (00:00)
94 Mistwood Heroes Dec 30, 2016 $0.99N/A (N/A)20,000 .. 50,0000%00:00 (00:00)
95 Starship Theory Jul 4, 2017 $3.99N/A (N/A)20,000 .. 50,0000%00:00 (00:00)
96 Redemption: Eternal Quest Aug 28, 2015 $1.99N/A (N/A)100,000 .. 200,0000%00:00 (00:00)
97 8Bit Fiesta - Party Game Sep 30, 2016 FreeN/A (N/A)0 .. 20,0000%00:00 (00:00)
98 Angry Arrows Aug 12, 2015 $4.99N/A (N/A)20,000 .. 50,0000%00:00 (00:00)
99 Mu Complex Oct 23, 2015 $8.99N/A (N/A)0 .. 20,0000%00:00 (00:00)
100 Void Invaders Aug 14, 2015 $2.99N/A (N/A)20,000 .. 50,0000%00:00 (00:00)
101 Dead In Bermuda Aug 27, 2015 $14.99N/A (N/A)20,000 .. 50,0000%00:00 (00:00)
102 Blaster Shooter GunGuy! Aug 10, 2015 $1.99N/A (N/A)50,000 .. 100,0000%00:00 (00:00)
103 Aviary Attorney Dec 21, 2015 $14.99N/A (N/A/77%)50,000 .. 100,0000%00:00 (00:00)
104 Monument Jun 5, 2015 $3.99N/A (N/A)100,000 .. 200,0000%00:00 (00:00)
105 none Nov 4, 2015 N/AN/A (N/A)20,000 .. 50,0000%00:00 (00:00)
106 Western Press Apr 21, 2016 $4.99N/A (N/A)20,000 .. 50,0000%00:00 (00:00)
107 A.I. Invasion Sep 30, 2015 $9.99N/A (N/A)0 .. 20,0000%00:00 (00:00)
108 Fortify Apr 8, 2016 $4.99N/A (N/A)0 .. 20,0000%00:00 (00:00)
109 iZBOT Sep 1, 2015 $11.99N/A (N/A)20,000 .. 50,0000%00:00 (00:00)
110 Orion Trail Oct 12, 2015 $7.99N/A (N/A)0 .. 20,0000%00:00 (00:00)
111 Stardust Galaxy Warriors: Stellar Climax Nov 10, 2015 $9.99N/A (N/A)0 .. 20,0000%00:00 (00:00)
112 Action Alien Jun 26, 2015 $5.99N/A (N/A)50,000 .. 100,0000%00:00 (00:00)
113 Gentlemen! Nov 5, 2013 $4.99N/A (N/A)20,000 .. 50,0000%00:00 (00:00)
114 Rabbit Hole 3D: Steam Edition Apr 25, 2014 $2.99N/A (N/A)50,000 .. 100,0000%00:00 (00:00)
115 Survivor Squad Nov 8, 2013 $2.99N/A (N/A)100,000 .. 200,0000%00:00 (00:00)
116 Kromaia Oct 23, 2014 $19.99N/A (N/A/68%)20,000 .. 50,0000%00:00 (00:00)
117 Montague's Mount Nov 19, 2013 $4.99N/A (N/A/39%)20,000 .. 50,0000%00:00 (00:00)
118 ReignMaker Apr 16, 2014 $14.99N/A (N/A)50,000 .. 100,0000%00:00 (00:00)
119 Ballpoint Universe - Infinite Dec 17, 2013 $3.99N/A (N/A)50,000 .. 100,0000%00:00 (00:00)
120 Poöf Nov 8, 2013 $6.99N/A (N/A)20,000 .. 50,0000%00:00 (00:00)
121 STARWHAL Sep 29, 2014 $11.99N/A (N/A)50,000 .. 100,0000%00:00 (00:00)
122 The Novelist Dec 10, 2013 $4.99N/A (N/A/66%)100,000 .. 200,0000%00:00 (00:00)
123 Final Rush Jan 17, 2014 $4.99N/A (N/A)20,000 .. 50,0000%00:00 (00:00)
124 Knytt Underground Oct 25, 2013 $1.39N/A (N/A)50,000 .. 100,0000%00:00 (00:00)
125 A-Men Jan 25, 2014 $9.99N/A (N/A)0 .. 20,0000%00:00 (00:00)
126 Solar Flux Oct 24, 2013 $9.99N/A (N/A)100,000 .. 200,0000%00:00 (00:00)
127 Jones On Fire Mar 14, 2013 $2.99N/A (N/A)50,000 .. 100,0000%00:00 (00:00)
128 FOTONICA Nov 6, 2014 $14.99N/A (N/A/71%)50,000 .. 100,0000%00:00 (00:00)
129 Munin Jun 10, 2014 $0.49N/A (N/A/68%)100,000 .. 200,0000%00:00 (00:00)
130 Godus Wars Feb 3, 2016 $14.99N/A (N/A)50,000 .. 100,0000%00:00 (00:00)
131 Jet Set Knights Jan 1, 2016 $9.99N/A (N/A)0 .. 20,0000%00:00 (00:00)
132 Bell Ringer Mar 6, 2016 $6.99N/A (N/A)200,000 .. 500,0000%00:00 (00:00)
133 1,000 Heads Among the Trees Dec 11, 2015 $4.99N/A (N/A)100,000 .. 200,0000%00:00 (00:00)
134 Space Moth DX Jan 22, 2016 $4.99N/A (N/A)20,000 .. 50,0000%00:00 (00:00)
135 Dream Factory Nov 2, 2015 $9.99N/A (N/A)20,000 .. 50,0000%00:00 (00:00)
136 PERFECT ANGLE: The puzzle game based on optical illusions Dec 22, 2015 $9.99N/A (N/A)50,000 .. 100,0000%00:00 (00:00)
137 Fist Slash: Of Ultimate Fury Dec 10, 2015 $3.99N/A (N/A)0 .. 20,0000%00:00 (00:00)
138 Wild Island Quest Sep 4, 2015 $1.99N/A (N/A)50,000 .. 100,0000%00:00 (00:00)
139 The Purring Quest Nov 12, 2015 $9.99N/A (N/A)50,000 .. 100,00016.67%01:52 (00:37)
140 Dragon's Wake Dec 10, 2015 $3.99N/A (N/A)0 .. 20,0000%00:00 (00:00)
141 Perraw - FPS Clone War Alpha Jan 29, 2016 $0.99N/A (N/A)0 .. 20,0000%00:00 (00:00)
142 Kitchen Simulator 2015 Sep 4, 2015 $0.99N/A (N/A)20,000 .. 50,0000%00:00 (00:00)
143 Faron's Fate Aug 14, 2015 $0.99N/A (N/A)0 .. 20,0000%00:00 (00:00)
144 Press X to Not Die Oct 6, 2017 $0.89N/A (N/A)50,000 .. 100,0000%00:00 (00:00)
145 Days Under Custody Nov 23, 2015 $4.99N/A (N/A)20,000 .. 50,0000%00:00 (00:00)
146 Club Life Apr 13, 2016 $12.99N/A (N/A)20,000 .. 50,0000%00:00 (00:00)
147 Uriel's Chasm Sep 12, 2014 $4.99N/A (N/A)200,000 .. 500,0000%00:00 (00:00)
148 TRISTOY Jan 15, 2015 $6.99N/A (N/A/49%)20,000 .. 50,0000%00:00 (00:00)
149 Arson and Plunder: Unleashed Sep 25, 2015 $4.99N/A (N/A)20,000 .. 50,0000%00:00 (00:00)
150 Echo of the Wilds Jun 10, 2014 $8.99N/A (N/A)20,000 .. 50,0000%00:00 (00:00)
151 Pivvot Jul 14, 2014 $4.99N/A (N/A)0 .. 20,0000%00:00 (00:00)
152 Oblitus Feb 27, 2015 $14.99N/A (N/A/69%)0 .. 20,0000%00:00 (00:00)
153 Stranded May 20, 2014 $0.99N/A (N/A)20,000 .. 50,0000%00:00 (00:00)
154 Actual Sunlight Apr 3, 2014 $4.99N/A (N/A/77%)50,000 .. 100,0000%00:00 (00:00)
155 Dreaming Sarah Mar 12, 2015 $5.99N/A (N/A)100,000 .. 200,0000%00:00 (00:00)
156 Volt Apr 14, 2014 $0.99N/A (N/A)50,000 .. 100,0000%00:00 (00:00)
157 Frederic: Resurrection of Music May 16, 2014 $2.99N/A (N/A)100,000 .. 200,0000%00:00 (00:00)
158 Slip Apr 28, 2014 $0.99N/A (N/A)20,000 .. 50,0000%00:00 (00:00)
159 Frederic: Evil Strikes Back May 23, 2014 $7.99N/A (N/A)100,000 .. 200,0000%00:00 (00:00)
160 Vitrum Sep 25, 2012 $1.99N/A (N/A)0 .. 20,0000%00:00 (00:00)
161 Rhythm Destruction Jun 16, 2014 $4.99N/A (N/A)50,000 .. 100,0000%00:00 (00:00)
162 Three Dead Zed Jul 7, 2014 $5.99N/A (N/A)50,000 .. 100,0000%00:00 (00:00)
163 Boson X Sep 15, 2014 $2.99N/A (N/A)50,000 .. 100,0000%00:00 (00:00)
164 Brute May 17, 2017 $6.99N/A (N/A)0 .. 20,0000%00:00 (00:00)
165 Evertown Jan 30, 2020 $1.99N/A (N/A)20,000 .. 50,0000%00:00 (00:00)
166 Hero Quest: Tower Conflict Apr 13, 2016 $0.99N/A (N/A)200,000 .. 500,0000%00:00 (00:00)
167 10 Second Ninja X Jul 19, 2016 $9.99N/A (N/A)100,000 .. 200,0004.76%14:17 (32:58)
168 CrazyCars3D Mar 28, 2016 $2.99N/A (N/A)50,000 .. 100,0000%00:00 (00:00)
169 Binaries Apr 4, 2016 $9.99N/A (N/A)0 .. 20,0000%00:00 (00:00)
170 MetaTron Dec 19, 2016 N/AN/A (N/A)0 .. 20,0000%00:00 (00:00)
171 Empire of the Gods May 13, 2008 $1.99N/A (N/A)20,000 .. 50,0000%00:00 (00:00)
172 TurnOn Jun 1, 2016 $14.99N/A (N/A/67%)20,000 .. 50,0000%00:00 (00:00)
173 Mindless Running Feb 22, 2016 $0.99N/A (N/A)20,000 .. 50,0000%00:00 (00:00)
174 IMSCARED Jan 31, 2016 $3.99N/A (N/A)20,000 .. 50,0000%00:00 (00:00)
175 Mimpi Dreams Mar 22, 2016 FreeN/A (N/A)20,000 .. 50,0000%00:00 (00:00)
176 Tiny Guardians Mar 24, 2016 $9.99N/A (N/A)0 .. 20,0000%00:00 (00:00)
177 Share May 3, 2016 $0.99N/A (N/A)20,000 .. 50,0000%00:00 (00:00)
178 Doodle Kingdom Jun 9, 2016 $8.99N/A (N/A)20,000 .. 50,0000%00:00 (00:00)
179 Cube Land Arena Mar 29, 2016 $0.99N/A (N/A)20,000 .. 50,0000%00:00 (00:00)
180 Rencounter Nov 4, 2016 $0.59N/A (N/A)20,000 .. 50,0000%00:00 (00:00)
181 Mega Coin Squad Aug 15, 2014 $14.99N/A (N/A/56%)0 .. 20,0000%00:00 (00:00)
182 Phoenix Force Nov 13, 2014 $0.99N/A (N/A)100,000 .. 200,0000%00:00 (00:00)
183 The Masterplan Jun 4, 2015 $19.99N/A (N/A/68%)100,000 .. 200,0000%00:00 (00:00)
184 Marvin's Mittens Dec 17, 2014 $5.99N/A (N/A)0 .. 20,0000%00:00 (00:00)
185 Velocibox Sep 8, 2014 $4.99N/A (N/A)50,000 .. 100,0000%00:00 (00:00)
186 A Druid's Duel Feb 25, 2015 $7.99N/A (N/A/70%)0 .. 20,0000%00:00 (00:00)
187 Squishy the Suicidal Pig Oct 23, 2014 $5.99N/A (N/A)200,000 .. 500,0000%00:00 (00:00)
188 Iron Fisticle Sep 16, 2014 $8.99N/A (N/A)20,000 .. 50,0000%00:00 (00:00)
189 Great Permutator Sep 15, 2014 $6.99N/A (N/A)20,000 .. 50,0000%00:00 (00:00)
190 Fancy Skulls Jun 16, 2014 $8.99N/A (N/A)20,000 .. 50,0000%00:00 (00:00)
191 Ninja Pizza Girl Sep 30, 2015 $6.99N/A (N/A/82%)50,000 .. 100,0000%00:00 (00:00)
192 Curses 'N Chaos Aug 18, 2015 $9.99N/A (N/A)20,000 .. 50,0000%00:00 (00:00)
193 Horizon Shift May 29, 2015 $4.99N/A (N/A)100,000 .. 200,0000%00:00 (00:00)
194 Back to Bed Aug 6, 2014 $5.99N/A (N/A)500,000 .. 1,000,0000%00:00 (00:00)
195 Traverser Jul 9, 2015 $14.99N/A (N/A/61%)0 .. 20,0000%00:00 (00:00)
196 NEON STRUCT May 20, 2015 $17.99N/A (N/A/62%)20,000 .. 50,0000%00:00 (00:00)
197 Pix the Cat Jan 29, 2015 $9.99N/A (N/A/77%)50,000 .. 100,0000%00:00 (00:00)

Tags over time:

Access restricted.

This feature is only available to users with special access rights. Sorry.

If you want to proceed, you need to register or log in first and then back Steam Spy on Patreon. Look for Indie or Pro pledge.

Don't forget to use the same email as on Steam Spy!

Owners of this game also own:

Access restricted.

This feature is only available to users with special access rights. Sorry.

If you want to proceed, you need to register or log in first and then back Steam Spy on Patreon. Look for Indie or Pro pledge.

Don't forget to use the same email as on Steam Spy!

Playtime distribution:

Access restricted.

This feature is only available to users with special access rights. Sorry.

If you want to proceed, you need to register or log in first and then back Steam Spy on Patreon. Look for Indie or Pro pledge.

Don't forget to use the same email as on Steam Spy!

Playtime (2 weeks):

Access restricted.

This feature is only available to users with special access rights. Sorry.

If you want to proceed, you need to register or log in first and then back Steam Spy on Patreon. Look for Indie or Pro pledge.

Don't forget to use the same email as on Steam Spy!

User reviews:

Login required.

Please register or log in to see this information.